Time;durP1;ratioP1;P1;durP2;ratioP2;P2;SDS_P1;SDS_P2;PMS_P1;PMS_P2;Temp;Humidity;BMP_temperature;BMP_pressure;BME280_temperature;BME280_humidity;BME280_pressure;Samples;Min_cycle;Max_cycle;Signal;HPM_P1;HPM_P2
2022/03/23 00:01:25;;;;;;;81.55;52.15;;;7.80;99.90;;;;;;5075363;28;20051;-84
2022/03/23 00:03:50;;;;;;;78.47;50.67;;;7.80;99.90;;;;;;5058094;28;20126;-84
2022/03/23 00:06:17;;;;;;;77.43;49.53;;;7.70;99.90;;;;;;5057939;28;20383;-85
2022/03/23 00:09:04;;;;;;;73.65;49.63;;;7.70;99.90;;;;;;5072726;28;20074;-84
2022/03/23 00:11:30;;;;;;;77.23;47.87;;;7.70;99.90;;;;;;5075858;28;20036;-84
2022/03/23 00:13:56;;;;;;;82.97;51.42;;;7.60;99.90;;;;;;5076399;28;20046;-85
2022/03/23 00:16:25;;;;;;;81.35;50.08;;;7.60;99.90;;;;;;5058341;28;20071;-85
2022/03/23 00:18:51;;;;;;;79.03;49.83;;;7.60;99.90;;;;;;5060508;28;20083;-83
2022/03/23 00:21:17;;;;;;;79.65;50.33;;;7.50;99.90;;;;;;5056825;28;20118;-84
2022/03/23 00:23:43;;;;;;;74.13;49.80;;;7.50;99.90;;;;;;5082677;28;20045;-85
2022/03/23 00:26:08;;;;;;;78.28;49.38;;;7.50;99.90;;;;;;5059247;28;20040;-85
2022/03/23 00:28:34;;;;;;;76.93;48.83;;;7.50;99.90;;;;;;5057385;28;20043;-84
2022/03/23 00:31:00;;;;;;;79.72;49.42;;;7.40;99.90;;;;;;5059130;28;20043;-85
2022/03/23 00:33:29;;;;;;;79.63;50.88;;;7.40;99.90;;;;;;5040867;28;20111;-84
2022/03/23 00:35:55;;;;;;;75.00;47.63;;;7.30;99.90;;;;;;5075370;28;20315;-85
2022/03/23 00:38:24;;;;;;;79.68;51.15;;;7.30;99.90;;;;;;5056928;28;20100;-84
2022/03/23 00:40:49;;;;;;;80.90;50.58;;;7.30;99.90;;;;;;5075804;28;20036;-84
2022/03/23 00:43:15;;;;;;;79.65;49.38;;;7.20;99.90;;;;;;5057282;28;20040;-83
2022/03/23 00:45:41;;;;;;;79.65;49.30;;;7.20;99.90;;;;;;5057764;28;20036;-84
2022/03/23 00:48:07;;;;;;;81.43;51.05;;;7.10;99.90;;;;;;5058206;28;20047;-83
2022/03/23 00:50:34;;;;;;;75.63;49.42;;;7.10;99.90;;;;;;5076741;28;20062;-85
2022/03/23 00:53:00;;;;;;;78.38;50.35;;;7.10;99.90;;;;;;5071422;28;20031;-84
2022/03/23 00:55:28;;;;;;;79.15;48.85;;;7.00;99.90;;;;;;5057906;28;20042;-84
2022/03/23 00:57:54;;;;;;;85.28;50.88;;;7.00;99.90;;;;;;5074517;28;20308;-84
2022/03/23 01:00:22;;;;;;;82.20;50.33;;;7.00;99.90;;;;;;5056914;28;20051;-84
2022/03/23 01:02:48;;;;;;;81.00;49.90;;;6.90;99.90;;;;;;5074403;28;21276;-84
2022/03/23 01:05:15;;;;;;;78.18;50.80;;;6.90;99.90;;;;;;5061827;28;20264;-84
2022/03/23 01:07:44;;;;;;;103.35;58.33;;;6.90;99.90;;;;;;5057017;28;20349;-83
2022/03/23 01:10:12;;;;;;;98.63;56.40;;;7.00;99.90;;;;;;5072725;28;20549;-85
2022/03/23 01:12:44;;;;;;;92.00;53.63;;;6.80;99.90;;;;;;5072711;28;20032;-84
2022/03/23 01:15:14;;;;;;;78.93;48.92;;;6.70;99.90;;;;;;5063566;28;20282;-84
2022/03/23 01:17:46;;;;;;;88.07;50.88;;;6.60;99.90;;;;;;5082016;28;20130;-84
2022/03/23 01:20:14;;;;;;;82.93;51.80;;;6.70;99.90;;;;;;5063402;28;20036;-84
2022/03/23 01:22:43;;;;;;;81.05;52.33;;;6.60;99.90;;;;;;5062868;28;20038;-83
2022/03/23 01:25:10;;;;;;;81.60;51.05;;;6.60;99.90;;;;;;5096941;28;20442;-83
2022/03/23 01:27:37;;;;;;;85.00;51.30;;;6.60;99.90;;;;;;5081772;28;20135;-84
2022/03/23 01:30:11;;;;;;;79.43;48.92;;;6.50;99.90;;;;;;5062840;28;20095;-84
2022/03/23 01:32:38;;;;;;;73.97;46.33;;;6.50;99.90;;;;;;5062528;28;20037;-84
2022/03/23 01:35:05;;;;;;;74.95;46.78;;;6.50;99.90;;;;;;5060081;28;20048;-84
2022/03/23 01:37:42;;;;;;;71.53;44.75;;;6.40;99.90;;;;;;5099162;27;20487;-84
2022/03/23 01:40:10;;;;;;;75.80;47.00;;;6.40;99.90;;;;;;5062400;28;20036;-84
2022/03/23 01:42:36;;;;;;;76.80;47.80;;;6.30;99.90;;;;;;5077824;28;20054;-84
2022/03/23 01:45:03;;;;;;;80.07;48.20;;;6.30;99.90;;;;;;5078802;28;20057;-84
2022/03/23 01:47:28;;;;;;;79.18;48.58;;;6.30;99.90;;;;;;5061469;28;21051;-84
2022/03/23 01:49:55;;;;;;;86.93;48.95;;;6.30;99.90;;;;;;5079151;28;20039;-83
2022/03/23 01:52:24;;;;;;;89.60;52.30;;;6.20;99.90;;;;;;5061948;28;20455;-85
2022/03/23 01:54:50;;;;;;;88.85;52.97;;;6.20;99.90;;;;;;5063763;28;20526;-84
2022/03/23 01:57:18;;;;;;;80.90;49.75;;;6.20;99.90;;;;;;5076087;28;20064;-84
2022/03/23 01:59:44;;;;;;;82.13;48.22;;;6.20;99.90;;;;;;5062334;28;21364;-84
2022/03/23 02:02:10;;;;;;;80.40;49.80;;;6.20;99.90;;;;;;5078834;28;20059;-84
2022/03/23 02:04:37;;;;;;;87.85;50.28;;;6.10;99.90;;;;;;5062580;28;20036;-84
2022/03/23 02:07:04;;;;;;;92.90;52.00;;;6.10;99.90;;;;;;5062605;28;20036;-84
2022/03/23 02:09:31;;;;;;;79.90;49.15;;;6.10;99.90;;;;;;5059831;28;20066;-83
2022/03/23 02:12:01;;;;;;;81.03;49.72;;;6.10;99.90;;;;;;5081949;28;20032;-84
2022/03/23 02:14:42;;;;;;;80.70;50.60;;;6.10;99.90;;;;;;5062462;28;20691;-84
2022/03/23 02:17:08;;;;;;;79.20;47.72;;;6.00;99.90;;;;;;5061981;28;20031;-84
2022/03/23 02:19:37;;;;;;;83.40;49.88;;;5.90;99.90;;;;;;5058493;28;20122;-83
2022/03/23 02:22:04;;;;;;;67.85;40.95;;;5.80;99.90;;;;;;5061572;28;20111;-83
2022/03/23 02:24:36;;;;;;;50.10;32.28;;;5.80;99.90;;;;;;5076630;28;20048;-84
2022/03/23 02:27:06;;;;;;;76.05;47.75;;;5.60;99.90;;;;;;5096560;28;20048;-83
2022/03/23 02:29:34;;;;;;;60.72;38.53;;;5.60;99.90;;;;;;5070274;28;20498;-83
2022/03/23 02:32:01;;;;;;;47.90;31.70;;;5.50;99.90;;;;;;5061070;28;20058;-83
2022/03/23 02:34:28;;;;;;;62.42;38.50;;;5.50;99.90;;;;;;5062909;28;20079;-84
2022/03/23 02:36:54;;;;;;;34.10;23.17;;;5.40;99.90;;;;;;5083698;28;20036;-84
2022/03/23 02:39:25;;;;;;;86.57;52.45;;;5.40;99.90;;;;;;5077930;28;20031;-83
2022/03/23 02:41:53;;;;;;;86.05;49.45;;;5.50;99.90;;;;;;5079054;28;20490;-83
2022/03/23 02:44:19;;;;;;;98.57;53.67;;;5.50;99.90;;;;;;5100025;27;20324;-83
2022/03/23 02:46:45;;;;;;;91.38;51.60;;;5.50;99.90;;;;;;5062971;28;20281;-83
2022/03/23 02:49:31;;;;;;;96.97;53.45;;;5.60;99.90;;;;;;5079340;28;20039;-83
2022/03/23 02:52:00;;;;;;;99.75;56.75;;;5.50;99.90;;;;;;5077756;28;20042;-83
2022/03/23 03:03:49;;;;;;;88.85;50.25;;;5.30;99.90;;;;;;4993861;28;20037;-83
2022/03/23 03:06:15;;;;;;;101.30;54.47;;;5.20;99.90;;;;;;4976832;28;20371;-84
2022/03/23 03:09:10;;;;;;;98.63;53.83;;;5.20;99.90;;;;;;5039973;28;20136;-84
2022/03/23 03:11:35;;;;;;;69.73;42.90;;;5.30;99.90;;;;;;5059981;28;20028;-84
2022/03/23 03:14:01;;;;;;;70.28;42.58;;;5.20;99.90;;;;;;5060775;28;20043;-83
2022/03/23 03:16:27;;;;;;;64.95;39.63;;;5.10;99.90;;;;;;5060414;28;20039;-82
2022/03/23 03:18:52;;;;;;;64.57;38.35;;;5.00;99.90;;;;;;5060133;28;20409;-84
2022/03/23 03:21:18;;;;;;;69.05;41.90;;;5.00;99.90;;;;;;5058849;28;20383;-83
2022/03/23 03:23:46;;;;;;;58.03;36.85;;;4.90;99.90;;;;;;5062634;28;20288;-83
2022/03/23 03:26:13;;;;;;;55.38;33.63;;;5.00;99.90;;;;;;5061890;28;20035;-84
2022/03/23 03:28:40;;;;;;;62.50;39.05;;;4.90;99.90;;;;;;5074631;28;20118;-83
2022/03/23 03:31:07;;;;;;;57.20;35.30;;;4.90;99.90;;;;;;5058897;28;20031;-84
2022/03/23 03:33:34;;;;;;;90.88;45.35;;;4.80;99.90;;;;;;5060822;28;20440;-83
2022/03/23 03:36:00;;;;;;;132.60;57.13;;;4.80;99.90;;;;;;5060490;28;20672;-84
2022/03/23 03:38:30;;;;;;;86.35;48.72;;;4.90;99.90;;;;;;5080361;28;20094;-83
2022/03/23 03:40:58;;;;;;;83.10;42.58;;;4.80;99.90;;;;;;5085117;28;20062;-83
2022/03/23 03:43:24;;;;;;;78.18;43.70;;;4.90;99.90;;;;;;5060582;28;20066;-84
2022/03/23 03:45:56;;;;;;;84.18;47.17;;;4.80;99.90;;;;;;5078692;28;20035;-83
2022/03/23 03:48:21;;;;;;;77.45;44.67;;;4.80;99.90;;;;;;5059751;28;20109;-83
2022/03/23 03:50:48;;;;;;;87.97;46.22;;;4.70;99.90;;;;;;5061340;28;20070;-84
2022/03/23 03:53:14;;;;;;;85.30;47.22;;;4.70;99.90;;;;;;5079354;28;20119;-83
2022/03/23 03:55:40;;;;;;;90.68;49.78;;;4.60;99.90;;;;;;5061373;28;20063;-83
2022/03/23 03:58:08;;;;;;;97.68;52.75;;;4.70;99.90;;;;;;5058665;28;20059;-83
2022/03/23 04:00:34;;;;;;;87.85;50.55;;;4.70;99.90;;;;;;5077497;28;20054;-83
2022/03/23 04:03:00;;;;;;;97.72;53.20;;;4.50;99.90;;;;;;5079291;28;21485;-83
2022/03/23 04:05:28;;;;;;;106.90;54.30;;;4.50;99.90;;;;;;5076896;28;20048;-83
2022/03/23 04:07:57;;;;;;;85.90;46.78;;;4.50;99.90;;;;;;5059997;28;20028;-83
2022/03/23 04:10:25;;;;;;;77.82;46.22;;;4.40;99.90;;;;;;5077783;28;20039;-83
2022/03/23 04:12:52;;;;;;;82.07;46.55;;;4.40;99.90;;;;;;5059417;28;20493;-83
2022/03/23 04:15:21;;;;;;;85.22;47.28;;;4.50;99.90;;;;;;5059789;28;20035;-83
2022/03/23 04:17:48;;;;;;;82.78;45.28;;;4.50;99.90;;;;;;5052974;28;20036;-82
2022/03/23 04:20:20;;;;;;;74.40;41.65;;;4.50;99.90;;;;;;5075900;28;20499;-83
2022/03/23 04:22:46;;;;;;;73.38;41.80;;;4.50;99.90;;;;;;5074605;28;20036;-83
2022/03/23 04:25:13;;;;;;;70.07;40.97;;;4.50;99.90;;;;;;5079889;28;20040;-83
2022/03/23 04:27:53;;;;;;;73.20;42.25;;;4.40;99.90;;;;;;5059280;28;20504;-83
2022/03/23 04:30:20;;;;;;;78.82;43.25;;;4.40;99.90;;;;;;5074298;28;20100;-83
2022/03/23 04:32:49;;;;;;;69.32;41.30;;;4.40;99.90;;;;;;5074494;28;20081;-83
2022/03/23 04:35:15;;;;;;;61.70;39.45;;;4.40;99.90;;;;;;5058826;28;20035;-83
2022/03/23 04:37:41;;;;;;;61.17;38.85;;;4.40;99.90;;;;;;5059123;28;20046;-82
2022/03/23 04:40:08;;;;;;;71.95;43.05;;;4.30;99.90;;;;;;5059557;28;20035;-83
2022/03/23 04:42:35;;;;;;;60.75;39.72;;;4.30;99.90;;;;;;5060383;28;20043;-82
2022/03/23 04:45:02;;;;;;;66.88;39.88;;;4.30;99.90;;;;;;5078842;28;20206;-83
2022/03/23 04:47:27;;;;;;;72.32;41.50;;;4.20;99.90;;;;;;5057686;28;20467;-83
2022/03/23 04:49:53;;;;;;;76.07;42.83;;;4.20;99.90;;;;;;5075009;28;20028;-83
2022/03/23 04:52:19;;;;;;;88.55;47.58;;;4.20;99.90;;;;;;5059259;28;20060;-83
2022/03/23 04:54:45;;;;;;;65.63;39.58;;;4.10;99.90;;;;;;5060487;28;20043;-83
2022/03/23 04:57:11;;;;;;;72.40;41.80;;;4.20;99.90;;;;;;5054641;28;20043;-83
2022/03/23 04:59:38;;;;;;;75.97;42.38;;;4.10;99.90;;;;;;5076075;28;20182;-83
2022/03/23 05:02:03;;;;;;;69.00;41.72;;;4.10;99.90;;;;;;5075668;28;20040;-83
2022/03/23 05:04:32;;;;;;;70.25;41.03;;;4.00;99.90;;;;;;5057133;28;20426;-83
2022/03/23 05:06:57;;;;;;;52.63;32.50;;;4.00;99.90;;;;;;5058146;28;20028;-83
2022/03/23 05:09:23;;;;;;;43.30;29.75;;;3.90;99.90;;;;;;5073582;28;20356;-83
2022/03/23 05:11:48;;;;;;;48.45;30.25;;;3.90;99.90;;;;;;5076298;28;20177;-82
2022/03/23 05:14:15;;;;;;;62.25;38.40;;;4.00;99.90;;;;;;5058301;28;20478;-83
2022/03/23 05:16:42;;;;;;;70.50;42.53;;;3.90;99.90;;;;;;5074828;28;20678;-83
2022/03/23 05:19:07;;;;;;;78.38;45.83;;;3.90;99.90;;;;;;5076777;28;20047;-82
2022/03/23 05:21:36;;;;;;;75.70;44.13;;;4.00;99.90;;;;;;5059463;28;20035;-83
2022/03/23 05:24:01;;;;;;;73.32;42.15;;;3.90;99.90;;;;;;5059257;28;20039;-83
2022/03/23 05:26:27;;;;;;;71.63;42.33;;;3.90;99.90;;;;;;5058522;28;20031;-83
2022/03/23 05:28:53;;;;;;;94.32;48.25;;;3.90;99.90;;;;;;5060556;28;20050;-83
2022/03/23 05:31:18;;;;;;;76.60;41.40;;;3.90;99.90;;;;;;5058768;28;20438;-83
2022/03/23 05:33:44;;;;;;;81.18;46.45;;;4.00;99.90;;;;;;5078017;28;20044;-83
2022/03/23 05:36:09;;;;;;;87.22;47.35;;;4.00;99.90;;;;;;5057329;28;20047;-81
2022/03/23 05:38:35;;;;;;;95.00;47.22;;;4.00;99.90;;;;;;5060524;28;20543;-82
2022/03/23 05:41:01;;;;;;;71.65;43.22;;;3.90;99.90;;;;;;5076900;28;20035;-83
2022/03/23 05:43:27;;;;;;;90.28;47.55;;;4.00;99.90;;;;;;5075268;28;20085;-83
2022/03/23 05:45:53;;;;;;;85.82;47.70;;;4.00;99.90;;;;;;5058664;28;20333;-83
2022/03/23 05:48:18;;;;;;;101.32;49.60;;;4.00;99.90;;;;;;5054657;28;20120;-83
2022/03/23 05:50:44;;;;;;;94.43;49.40;;;4.00;99.90;;;;;;5077305;28;20049;-83
2022/03/23 05:53:10;;;;;;;92.47;48.85;;;4.00;99.90;;;;;;5056460;28;20494;-83
2022/03/23 05:55:36;;;;;;;72.25;45.00;;;4.10;99.90;;;;;;5058778;28;20043;-83
2022/03/23 05:58:03;;;;;;;82.53;46.53;;;4.00;99.90;;;;;;5077400;28;20051;-83
2022/03/23 06:00:29;;;;;;;91.07;50.25;;;4.10;99.90;;;;;;5078004;28;20039;-82
2022/03/23 06:02:55;;;;;;;80.43;45.17;;;4.10;99.90;;;;;;5060987;28;20562;-83
2022/03/23 06:05:21;;;;;;;86.50;47.28;;;4.20;99.90;;;;;;5080851;28;20042;-83
2022/03/23 06:07:49;;;;;;;51.78;35.63;;;4.10;99.90;;;;;;5078514;28;20040;-82
2022/03/23 06:10:15;;;;;;;88.65;44.05;;;4.20;99.90;;;;;;5099125;27;20498;-83
2022/03/23 06:12:40;;;;;;;69.88;39.60;;;4.10;99.90;;;;;;5063553;28;20092;-83
2022/03/23 06:15:08;;;;;;;44.97;29.90;;;4.10;99.90;;;;;;5079290;28;20352;-83
2022/03/23 06:17:35;;;;;;;42.95;29.80;;;4.10;99.90;;;;;;5075950;28;20032;-82
2022/03/23 06:20:02;;;;;;;48.00;28.73;;;4.10;99.90;;;;;;5078436;28;20648;-83
2022/03/23 06:22:28;;;;;;;43.40;29.80;;;4.10;99.90;;;;;;5101531;27;20035;-83
2022/03/23 06:24:54;;;;;;;60.20;27.40;;;4.20;99.90;;;;;;5081777;28;20034;-83
2022/03/23 06:27:23;;;;;;;36.90;26.67;;;4.20;99.90;;;;;;5078220;28;20040;-83
2022/03/23 06:29:49;;;;;;;54.97;34.33;;;4.20;99.90;;;;;;5057083;28;20096;-82
2022/03/23 06:32:14;;;;;;;73.15;43.22;;;4.20;99.90;;;;;;5070495;28;20140;-82
2022/03/23 06:34:40;;;;;;;91.80;47.13;;;4.40;99.90;;;;;;5091376;28;20479;-82
2022/03/23 06:37:06;;;;;;;93.10;50.50;;;4.60;99.90;;;;;;5061055;28;20541;-83
2022/03/23 06:39:32;;;;;;;67.07;43.15;;;4.60;99.90;;;;;;5060677;28;20127;-83
2022/03/23 06:41:58;;;;;;;76.03;44.50;;;4.70;99.90;;;;;;5062047;28;20137;-82
2022/03/23 06:44:24;;;;;;;80.63;45.95;;;4.70;99.90;;;;;;5077100;28;20091;-83
2022/03/23 06:46:50;;;;;;;73.72;42.80;;;4.90;99.90;;;;;;5059773;28;20118;-82
2022/03/23 06:49:16;;;;;;;65.60;39.85;;;5.00;99.90;;;;;;5061966;28;20162;-82
2022/03/23 06:51:42;;;;;;;73.60;43.67;;;5.20;99.90;;;;;;5075776;28;20047;-82
2022/03/23 06:54:08;;;;;;;69.25;41.17;;;5.30;99.90;;;;;;5078024;28;20112;-83
2022/03/23 06:56:34;;;;;;;64.15;40.05;;;5.50;99.90;;;;;;5060661;28;20126;-83
2022/03/23 06:59:00;;;;;;;72.18;39.83;;;5.60;99.90;;;;;;5075578;28;20063;-83
2022/03/23 07:01:27;;;;;;;63.47;41.30;;;5.50;99.90;;;;;;5063364;28;20459;-82
2022/03/23 07:03:53;;;;;;;74.70;47.10;;;5.60;99.90;;;;;;5061285;28;20417;-83
2022/03/23 07:06:19;;;;;;;89.22;52.78;;;5.80;99.90;;;;;;5078499;28;20043;-84
2022/03/23 07:11:29;;;;;;;88.78;54.05;;;6.20;99.90;;;;;;5077437;28;20459;-83
2022/03/23 07:13:56;;;;;;;96.40;57.13;;;6.40;99.90;;;;;;5060891;28;20131;-83
2022/03/23 07:16:21;;;;;;;90.72;57.80;;;6.60;99.90;;;;;;5101627;27;20054;-83
2022/03/23 07:18:49;;;;;;;86.93;55.00;;;6.70;99.90;;;;;;5062815;28;20047;-83
2022/03/23 07:21:15;;;;;;;92.45;54.72;;;6.80;99.90;;;;;;5062274;28;20487;-83
2022/03/23 07:23:40;;;;;;;92.53;56.03;;;7.00;99.90;;;;;;5078309;28;20043;-83
2022/03/23 07:26:11;;;;;;;87.65;55.58;;;7.10;99.90;;;;;;5078206;28;20035;-83
2022/03/23 07:28:36;;;;;;;78.25;51.22;;;7.20;99.90;;;;;;5079196;28;20328;-83
2022/03/23 07:31:08;;;;;;;79.38;50.78;;;7.40;99.90;;;;;;5078290;28;20500;-83
2022/03/23 07:33:34;;;;;;;77.60;51.72;;;7.50;99.90;;;;;;5061810;28;20141;-83
2022/03/23 07:36:01;;;;;;;75.47;50.67;;;7.70;99.90;;;;;;5062684;28;20220;-83
2022/03/23 07:38:26;;;;;;;79.18;51.63;;;7.90;99.90;;;;;;5059932;28;20176;-83
2022/03/23 07:40:52;;;;;;;76.75;49.47;;;8.00;99.90;;;;;;5078760;28;20134;-84
2022/03/23 07:43:18;;;;;;;72.68;49.00;;;8.10;99.90;;;;;;5057530;28;20051;-83
2022/03/23 07:45:47;;;;;;;76.05;49.45;;;8.30;99.90;;;;;;5074143;28;20036;-83
2022/03/23 07:48:16;;;;;;;75.85;46.45;;;8.40;99.90;;;;;;5073588;28;20103;-83
2022/03/23 07:50:43;;;;;;;71.38;47.13;;;8.60;99.90;;;;;;5075184;28;20456;-83
2022/03/23 07:53:08;;;;;;;66.20;44.28;;;8.70;99.90;;;;;;5062830;28;20051;-82
2022/03/23 07:55:34;;;;;;;66.15;43.33;;;8.80;99.90;;;;;;5063208;28;20430;-83
2022/03/23 07:58:08;;;;;;;63.03;45.50;;;8.90;99.90;;;;;;5054423;28;20051;-84
2022/03/23 08:00:38;;;;;;;64.17;43.57;;;9.00;99.90;;;;;;5064993;28;20196;-84
2022/03/23 08:03:12;;;;;;;60.08;42.35;;;9.20;99.90;;;;;;5061667;28;20555;-84
2022/03/23 08:05:38;;;;;;;59.47;41.33;;;9.40;99.90;;;;;;5078797;28;20050;-84
2022/03/23 08:08:05;;;;;;;55.92;41.03;;;9.40;99.90;;;;;;5056507;28;20143;-84
2022/03/23 08:10:31;;;;;;;58.13;40.58;;;9.50;99.90;;;;;;5055028;28;20231;-84
2022/03/23 08:12:56;;;;;;;54.88;39.20;;;9.70;99.90;;;;;;5060293;28;20118;-84
2022/03/23 08:15:24;;;;;;;58.65;39.40;;;9.80;99.90;;;;;;5070857;28;20439;-84
2022/03/23 08:17:50;;;;;;;56.53;38.70;;;10.00;99.90;;;;;;5053773;28;20047;-83
2022/03/23 08:20:35;;;;;;;52.03;36.10;;;10.20;96.90;;;;;;5060831;28;20118;-84
2022/03/23 08:23:06;;;;;;;44.55;33.45;;;10.30;1.00;;;;;;5078610;28;20050;-84
2022/03/23 08:25:33;;;;;;;45.83;31.92;;;10.60;99.90;;;;;;5073983;28;20246;-84
2022/03/23 08:28:02;;;;;;;46.80;31.88;;;10.70;99.90;;;;;;5089158;27;20682;-84
2022/03/23 08:30:28;;;;;;;45.65;31.55;;;10.80;99.90;;;;;;5060141;28;20096;-84
2022/03/23 08:32:54;;;;;;;41.65;30.92;;;11.10;99.90;;;;;;5061446;28;20036;-85
2022/03/23 08:35:20;;;;;;;41.30;31.85;;;11.10;99.90;;;;;;5089557;28;20500;-83
2022/03/23 08:37:46;;;;;;;38.85;28.50;;;11.20;11.30;;;;;;5061056;28;20154;-84
2022/03/23 08:40:12;;;;;;;35.35;27.52;;;11.50;99.90;;;;;;5060494;28;20037;-84
2022/03/23 08:42:38;;;;;;;38.47;27.05;;;11.60;99.90;;;;;;5062804;28;20043;-84
2022/03/23 08:45:13;;;;;;;37.22;26.67;;;11.70;99.90;;;;;;5061558;28;20039;-85
2022/03/23 08:47:39;;;;;;;;;;;11.80;99.90;;;;;;5061245;28;20123;-84
2022/03/23 08:50:07;;;;;;;38.55;26.15;;;12.00;99.90;;;;;;5070782;28;20430;-84
2022/03/23 08:52:34;;;;;;;35.38;26.23;;;12.20;1.00;;;;;;5054727;28;20027;-84
2022/03/23 08:55:05;;;;;;;37.45;26.63;;;12.30;1.00;;;;;;5059247;28;20510;-84
2022/03/23 08:57:31;;;;;;;34.88;25.90;;;12.40;1.00;;;;;;5076757;28;20696;-84
2022/03/23 08:59:56;;;;;;;30.90;23.83;;;12.60;1.00;;;;;;5059641;28;20047;-85
2022/03/23 09:02:28;;;;;;;29.83;23.30;;;12.80;99.90;;;;;;5057971;28;20092;-85
2022/03/23 09:04:56;;;;;;;30.33;22.70;;;13.00;99.90;;;;;;5058974;28;20051;-84
2022/03/23 09:07:26;;;;;;;29.38;23.73;;;13.00;99.90;;;;;;5060800;28;20036;-84
2022/03/23 09:09:52;;;;;;;30.35;22.92;;;13.20;99.90;;;;;;5057662;28;20084;-85
2022/03/23 09:12:26;;;;;;;30.75;22.67;;;13.30;99.90;;;;;;5076267;28;20036;-85
2022/03/23 09:14:52;;;;;;;27.60;22.70;;;13.50;99.90;;;;;;5073133;28;20633;-85
2022/03/23 09:17:22;;;;;;;27.73;21.67;;;13.60;99.90;;;;;;5057537;28;20036;-85
2022/03/23 09:19:47;;;;;;;29.38;21.73;;;13.70;99.90;;;;;;5096876;28;20510;-85
2022/03/23 09:22:21;;;;;;;30.25;22.10;;;13.80;99.90;;;;;;5079668;28;20047;-85
2022/03/23 09:24:49;;;;;;;27.38;21.00;;;14.00;99.90;;;;;;5063881;28;20575;-86
2022/03/23 09:27:18;;;;;;;26.08;20.45;;;14.20;99.90;;;;;;5075809;28;20521;-85
2022/03/23 09:29:44;;;;;;;25.40;20.60;;;14.30;99.90;;;;;;5088484;28;20431;-85
2022/03/23 09:32:16;;;;;;;27.05;20.65;;;14.50;99.90;;;;;;5086487;28;20043;-85
2022/03/23 09:34:45;;;;;;;23.92;19.95;;;14.50;99.90;;;;;;5063072;28;20100;-86
2022/03/23 09:40:02;;;;;;;23.80;20.13;;;14.80;99.90;;;;;;5078900;28;20130;-85
2022/03/23 09:42:31;;;;;;;24.05;19.38;;;15.00;99.90;;;;;;5077464;28;20032;-85
2022/03/23 09:44:57;;;;;;;24.02;18.80;;;15.10;99.90;;;;;;5064241;28;20031;-85
2022/03/23 09:47:23;;;;;;;22.02;18.80;;;15.10;99.90;;;;;;5064915;28;20474;-85
2022/03/23 09:49:49;;;;;;;24.77;19.75;;;15.40;99.90;;;;;;5063346;28;20379;-84
2022/03/23 09:52:23;;;;;;;25.00;20.33;;;15.50;99.90;;;;;;5065687;28;20043;-85
2022/03/23 09:54:57;;;;;;;26.02;20.05;;;15.60;99.90;;;;;;5062497;28;20050;-85
2022/03/23 09:57:23;;;;;;;23.67;20.27;;;15.70;99.90;;;;;;5081218;28;20039;-86
2022/03/23 09:59:49;;;;;;;26.65;20.67;;;15.80;99.90;;;;;;5062594;28;20051;-85
2022/03/23 10:02:58;;;;;;;25.95;19.88;;;15.90;99.90;;;;;;5079602;28;20047;-85
2022/03/23 10:05:56;;;;;;;27.70;20.38;;;16.00;99.90;;;;;;5004394;28;20124;-86
2022/03/23 10:08:53;;;;;;;26.55;19.90;;;16.10;99.90;;;;;;5082062;28;20040;-86
2022/03/23 10:11:47;;;;;;;26.27;20.80;;;16.20;99.90;;;;;;5078065;28;20155;-85
2022/03/23 10:14:49;;;;;;;29.48;21.40;;;16.30;99.90;;;;;;5077778;28;20044;-86
2022/03/23 10:17:35;;;;;;;22.80;19.75;;;16.40;99.90;;;;;;5079381;28;20561;-85
2022/03/23 10:20:02;;;;;;;23.70;19.50;;;16.50;99.90;;;;;;5077666;28;20039;-85
2022/03/23 10:22:28;;;;;;;25.02;19.88;;;16.70;99.90;;;;;;5059412;28;20516;-85
2022/03/23 10:24:57;;;;;;;24.33;19.60;;;16.80;99.90;;;;;;5080822;28;20040;-85
2022/03/23 10:27:32;;;;;;;23.75;19.30;;;16.80;99.90;;;;;;5077098;28;20198;-86
2022/03/23 10:29:57;;;;;;;24.50;18.58;;;17.00;99.90;;;;;;5081883;28;20039;-85
2022/03/23 10:32:42;;;;;;;22.48;17.80;;;17.00;99.90;;;;;;5077804;28;20036;-85
2022/03/23 10:35:13;;;;;;;21.35;17.77;;;17.10;99.90;;;;;;5079833;28;20039;-86
2022/03/23 10:37:40;;;;;;;21.75;18.27;;;17.30;99.90;;;;;;5061671;28;20475;-86
2022/03/23 10:40:12;;;;;;;22.75;16.92;;;17.30;99.90;;;;;;5080950;28;20078;-86
2022/03/23 10:42:47;;;;;;;19.10;15.85;;;17.40;99.90;;;;;;5079826;28;20055;-85
2022/03/23 10:45:18;;;;;;;22.02;16.30;;;17.50;99.90;;;;;;5077736;28;20031;-86
2022/03/23 10:47:49;;;;;;;20.95;15.07;;;17.70;99.90;;;;;;5075884;28;20032;-86
2022/03/23 10:50:20;;;;;;;17.02;14.95;;;17.70;99.90;;;;;;5063943;28;20118;-86
2022/03/23 10:53:00;;;;;;;20.80;14.95;;;17.70;99.90;;;;;;5062589;28;20118;-85
2022/03/23 10:55:36;;;;;;;19.77;14.55;;;17.90;99.90;;;;;;5079514;28;20770;-86
2022/03/23 10:58:05;;;;;;;18.30;14.25;;;17.90;99.90;;;;;;5075657;28;20063;-86
2022/03/23 11:00:32;;;;;;;19.73;14.10;;;18.00;99.90;;;;;;5062255;28;20044;-86
2022/03/23 11:03:02;;;;;;;20.17;13.82;;;18.10;99.90;;;;;;5057751;28;20303;-86
2022/03/23 11:05:41;;;;;;;21.83;13.95;;;18.20;99.90;;;;;;5082463;28;20220;-86
2022/03/23 11:08:11;;;;;;;21.70;14.48;;;18.30;99.90;;;;;;5070327;28;20040;-85
2022/03/23 11:16:27;;;;;;;18.02;12.77;;;18.50;99.90;;;;;;5080256;28;20040;-87
2022/03/23 11:19:11;;;;;;;20.85;12.68;;;18.50;99.90;;;;;;5063015;28;20066;-86
2022/03/23 11:22:04;;;;;;;21.20;11.63;;;18.80;99.90;;;;;;5073802;28;20045;-86
2022/03/23 11:24:42;;;;;;;20.92;12.15;;;18.90;99.90;;;;;;5061130;28;20040;-86
2022/03/23 11:27:17;;;;;;;18.50;12.82;;;19.00;99.90;;;;;;5080380;28;20050;-86
2022/03/23 11:29:47;;;;;;;20.50;12.93;;;19.00;99.90;;;;;;5078734;28;20142;-87
2022/03/23 11:32:24;;;;;;;21.17;13.98;;;19.10;99.90;;;;;;5064766;28;20111;-87
2022/03/23 11:34:51;;;;;;;20.55;13.98;;;19.30;99.90;;;;;;5059221;28;20139;-85
2022/03/23 11:37:21;;;;;;;21.67;14.20;;;19.20;99.90;;;;;;5063754;28;20062;-87
2022/03/23 11:39:47;;;;;;;25.05;14.52;;;19.10;99.90;;;;;;5079543;28;20035;-86
2022/03/23 11:42:14;;;;;;;21.85;14.55;;;19.30;99.90;;;;;;5078729;28;20039;-86
2022/03/23 11:44:46;;;;;;;19.50;14.10;;;19.30;99.90;;;;;;5059098;28;20036;-87
2022/03/23 11:47:28;;;;;;;21.40;10.75;;;19.70;99.90;;;;;;5062128;28;20036;-87
2022/03/23 11:50:21;;;;;;;20.88;12.90;;;19.40;99.90;;;;;;5102572;27;20929;-87
2022/03/23 11:52:57;;;;;;;19.98;10.38;;;19.70;99.90;;;;;;5078021;28;20027;-87
2022/03/23 11:55:40;;;;;;;27.13;9.07;;;19.80;99.90;;;;;;5078145;28;20035;-87
2022/03/23 11:58:16;;;;;;;20.45;9.48;;;19.80;99.90;;;;;;5059735;28;20056;-86
2022/03/23 12:01:15;;;;;;;16.85;9.45;;;20.00;99.90;;;;;;5076666;28;20166;-87
2022/03/23 12:03:40;;;;;;;20.40;10.07;;;20.10;99.90;;;;;;5078862;28;20051;-87
2022/03/23 12:06:12;;;;;;;19.65;11.57;;;20.20;99.90;;;;;;5062921;28;20104;-88
2022/03/23 12:08:50;;;;;;;20.33;9.35;;;20.00;99.90;;;;;;5060473;28;20120;-87
2022/03/23 12:11:34;;;;;;;17.60;9.18;;;20.10;99.90;;;;;;5077644;28;20032;-87
2022/03/23 12:14:23;;;;;;;19.05;10.13;;;20.20;99.90;;;;;;5050856;28;20534;-87
2022/03/23 12:16:52;;;;;;;21.63;10.57;;;20.40;99.90;;;;;;5077860;28;20372;-88
2022/03/23 12:19:28;;;;;;;28.05;10.65;;;20.20;99.90;;;;;;5064549;28;20410;-89
2022/03/23 12:22:10;;;;;;;23.17;9.73;;;20.30;99.90;;;;;;5057156;28;20070;-88
2022/03/23 12:25:02;;;;;;;20.65;9.82;;;20.30;99.90;;;;;;5061737;28;20032;-88
2022/03/23 12:28:05;;;;;;;20.27;10.02;;;20.40;99.90;;;;;;5072541;28;20051;-87
2022/03/23 12:30:41;;;;;;;20.95;8.98;;;20.40;99.90;;;;;;5076708;28;20123;-87
2022/03/23 12:33:11;;;;;;;23.50;7.95;;;20.50;99.90;;;;;;5060673;28;20107;-89
2022/03/23 12:35:47;;;;;;;18.02;9.32;;;20.70;99.90;;;;;;5064357;28;20471;-87
2022/03/23 12:38:27;;;;;;;23.30;9.48;;;20.20;99.90;;;;;;5062125;28;20086;-87
2022/03/23 12:41:08;;;;;;;15.02;8.82;;;20.70;99.90;;;;;;5064027;28;20035;-89
2022/03/23 12:43:36;;;;;;;17.92;8.35;;;20.60;99.90;;;;;;5060408;28;20119;-88
2022/03/23 12:46:03;;;;;;;24.40;9.73;;;20.50;99.90;;;;;;5076057;28;20040;-88
2022/03/23 12:59:37;;;;;;;17.75;7.93;;;21.00;99.90;;;;;;5075208;28;20154;-89
2022/03/23 13:02:19;;;;;;;16.98;8.15;;;21.10;99.90;;;;;;5076084;28;20165;-89
2022/03/23 13:04:48;;;;;;;20.30;8.85;;;20.70;99.90;;;;;;5073175;28;20577;-88
2022/03/23 13:07:29;;;;;;;21.00;8.75;;;20.70;99.90;;;;;;5057514;28;20441;-88
2022/03/23 13:10:10;;;;;;;23.88;9.40;;;21.20;99.90;;;;;;5054361;28;20166;-87
2022/03/23 13:12:38;;;;;;;18.73;8.65;;;21.20;99.90;;;;;;5073439;28;20043;-88
2022/03/23 13:15:15;;;;;;;25.50;8.98;;;21.40;99.90;;;;;;5056439;28;20041;-89
2022/03/23 13:17:47;;;;;;;20.92;6.07;;;21.60;99.90;;;;;;5052502;28;20044;-88